createdAt,value
2018-05-14T00:00:11.017Z,995.7
2018-05-14T00:01:12.916Z,995.7
2018-05-14T00:02:14.969Z,995.7
2018-05-14T00:03:17.432Z,995.7
2018-05-14T00:04:19.811Z,995.7
2018-05-14T00:05:21.285Z,995.7
2018-05-14T00:06:22.562Z,995.7
2018-05-14T00:07:23.858Z,995.7
2018-05-14T00:08:25.758Z,995.6
2018-05-14T00:09:28.459Z,995.6
2018-05-14T00:10:30.429Z,995.6
2018-05-14T00:11:32.639Z,995.6
2018-05-14T00:12:34.648Z,995.6
2018-05-14T00:13:36.203Z,995.6
2018-05-14T00:14:37.671Z,995.6
2018-05-14T00:15:38.520Z,995.6
2018-05-14T00:16:39.289Z,995.6
2018-05-14T00:17:40.517Z,995.6
2018-05-14T00:18:41.728Z,995.6
2018-05-14T00:19:44.398Z,995.6
2018-05-14T00:20:46.481Z,995.6
2018-05-14T00:21:48.531Z,995.6
2018-05-14T00:22:50.329Z,995.6
2018-05-14T00:23:52.501Z,995.6
2018-05-14T00:24:53.511Z,995.6
2018-05-14T00:25:54.552Z,995.6
2018-05-14T00:26:55.563Z,995.6
2018-05-14T00:27:56.378Z,995.6
2018-05-14T00:28:57.166Z,995.6
2018-05-14T00:29:57.878Z,995.5
2018-05-14T00:30:58.893Z,995.6
2018-05-14T00:31:59.614Z,995.6
2018-05-14T00:33:00.542Z,995.6
2018-05-14T00:34:01.294Z,995.5
2018-05-14T00:35:02.107Z,995.5
2018-05-14T00:36:02.823Z,995.6
2018-05-14T00:37:03.828Z,995.5
2018-05-14T00:38:04.577Z,995.5
2018-05-14T00:39:05.347Z,995.5
2018-05-14T00:40:06.069Z,995.5
2018-05-14T00:41:06.794Z,995.5
2018-05-14T00:42:07.785Z,995.5
2018-05-14T00:43:09.308Z,995.5
2018-05-14T00:44:10.235Z,995.5
2018-05-14T00:45:10.968Z,995.5
2018-05-14T00:46:11.693Z,995.4
2018-05-14T00:47:12.411Z,995.4
2018-05-14T00:48:13.139Z,995.4
2018-05-14T00:49:13.865Z,995.4
2018-05-14T00:50:14.884Z,995.4
2018-05-14T00:51:15.608Z,995.4
2018-05-14T00:52:16.328Z,995.4
2018-05-14T00:53:17.095Z,995.4
2018-05-14T00:54:17.819Z,995.4
2018-05-14T00:55:18.900Z,995.4
2018-05-14T00:56:19.636Z,995.4
2018-05-14T00:57:20.371Z,995.4
2018-05-14T00:58:21.159Z,995.4
2018-05-14T00:59:21.892Z,995.5
2018-05-14T01:00:22.738Z,995.5
2018-05-14T01:01:23.474Z,995.5
2018-05-14T01:02:24.294Z,995.5
2018-05-14T01:03:25.277Z,995.5
2018-05-14T01:04:26.075Z,995.5
2018-05-14T01:05:26.859Z,995.5
2018-05-14T01:06:28.006Z,995.5
2018-05-14T01:07:28.761Z,995.6
2018-05-14T01:08:29.844Z,995.6
2018-05-14T01:09:30.953Z,995.6
2018-05-14T01:10:32.031Z,995.5
2018-05-14T01:11:32.780Z,995.6
2018-05-14T01:12:33.700Z,995.5
2018-05-14T01:13:34.625Z,995.5
2018-05-14T01:14:35.357Z,995.5
2018-05-14T01:15:36.677Z,995.5
2018-05-14T01:16:37.430Z,995.5
2018-05-14T01:17:43.506Z,995.5
2018-05-14T01:18:44.281Z,995.5
2018-05-14T01:19:45.126Z,995.5
2018-05-14T01:20:45.876Z,995.5
2018-05-14T01:21:46.695Z,995.6
2018-05-14T01:22:47.476Z,995.5
2018-05-14T01:23:48.832Z,995.5
2018-05-14T01:24:49.608Z,995.5
2018-05-14T01:25:50.357Z,995.5
2018-05-14T01:26:51.151Z,995.5
2018-05-14T01:27:51.875Z,995.5
2018-05-14T01:28:52.748Z,995.5
2018-05-14T01:29:53.486Z,995.5
2018-05-14T01:30:54.274Z,995.5
2018-05-14T01:31:55.134Z,995.5
2018-05-14T01:32:55.889Z,995.5
2018-05-14T01:33:56.809Z,995.5
2018-05-14T01:34:57.970Z,995.5
2018-05-14T01:35:58.715Z,995.5
2018-05-14T01:36:59.444Z,995.5
2018-05-14T01:38:00.316Z,995.5
2018-05-14T01:39:01.483Z,995.5
2018-05-14T01:40:02.244Z,995.5
2018-05-14T01:41:02.997Z,995.5
2018-05-14T01:42:03.781Z,995.5
2018-05-14T01:43:04.658Z,995.5
2018-05-14T01:44:05.500Z,995.5
2018-05-14T01:45:06.296Z,995.5
2018-05-14T01:46:07.060Z,995.5
2018-05-14T01:47:07.789Z,995.5
2018-05-14T01:48:08.557Z,995.5
2018-05-14T01:49:09.318Z,995.5
2018-05-14T01:50:10.107Z,995.5
2018-05-14T01:51:10.851Z,995.5
2018-05-14T01:52:11.635Z,995.5
2018-05-14T01:53:12.390Z,995.5
2018-05-14T01:54:13.164Z,995.5
2018-05-14T01:55:13.946Z,995.5
2018-05-14T01:56:15.201Z,995.6
2018-05-14T01:57:16.489Z,995.5
2018-05-14T01:58:17.236Z,995.5
2018-05-14T01:59:18.060Z,995.5
2018-05-14T02:00:18.792Z,995.6
2018-05-14T02:01:19.573Z,995.6
2018-05-14T02:02:20.402Z,995.5
2018-05-14T02:03:21.353Z,995.5
2018-05-14T02:04:22.105Z,995.5
2018-05-14T02:05:22.853Z,995.6
2018-05-14T02:06:23.625Z,995.5
2018-05-14T02:07:24.416Z,995.5
2018-05-14T02:08:25.274Z,995.5
2018-05-14T02:09:26.023Z,995.6
2018-05-14T02:10:26.814Z,995.6
2018-05-14T02:11:27.694Z,995.5
2018-05-14T02:12:28.665Z,995.5
2018-05-14T02:13:29.425Z,995.6
2018-05-14T02:14:30.190Z,995.5
2018-05-14T02:15:30.952Z,995.5
2018-05-14T02:16:31.827Z,995.6
2018-05-14T02:17:33.073Z,995.6
2018-05-14T02:18:33.820Z,995.5
2018-05-14T02:19:34.820Z,995.5
2018-05-14T02:20:35.808Z,995.5
2018-05-14T02:21:36.695Z,995.6
2018-05-14T02:22:37.902Z,995.5
2018-05-14T02:23:38.796Z,995.5
2018-05-14T02:24:39.505Z,995.5
2018-05-14T02:25:40.296Z,995.5
2018-05-14T02:26:41.023Z,995.6
2018-05-14T02:27:41.782Z,995.5
2018-05-14T02:28:42.552Z,995.5
2018-05-14T02:29:43.313Z,995.6
2018-05-14T02:30:44.091Z,995.6
2018-05-14T02:31:44.823Z,995.6
2018-05-14T02:32:45.848Z,995.6
2018-05-14T02:33:46.652Z,995.5
2018-05-14T02:34:47.418Z,995.5
2018-05-14T02:35:48.290Z,995.5
2018-05-14T02:36:49.072Z,995.5
2018-05-14T02:37:49.876Z,995.5
2018-05-14T02:38:50.866Z,995.5
2018-05-14T02:39:51.672Z,995.5
2018-05-14T02:40:52.427Z,995.5
2018-05-14T02:41:53.185Z,995.5
2018-05-14T02:42:53.929Z,995.5
2018-05-14T02:43:54.820Z,995.5
2018-05-14T02:44:55.605Z,995.5
2018-05-14T02:45:56.390Z,995.5
2018-05-14T02:46:57.144Z,995.5
2018-05-14T02:47:57.907Z,995.5
2018-05-14T02:48:58.784Z,995.5
2018-05-14T02:50:00.059Z,995.5
2018-05-14T02:51:01.269Z,995.5
2018-05-14T02:52:02.145Z,995.5
2018-05-14T02:53:02.912Z,995.5
2018-05-14T02:54:03.657Z,995.5
2018-05-14T02:55:04.520Z,995.5
2018-05-14T02:56:05.323Z,995.5
2018-05-14T02:57:06.090Z,995.5
2018-05-14T02:58:06.833Z,995.5
2018-05-14T02:59:07.755Z,995.5
2018-05-14T03:00:08.661Z,995.5
2018-05-14T03:01:09.402Z,995.5
2018-05-14T03:02:10.144Z,995.5
2018-05-14T03:03:10.913Z,995.5
2018-05-14T03:04:11.783Z,995.5
2018-05-14T03:05:12.683Z,995.5
2018-05-14T03:06:13.479Z,995.5
2018-05-14T03:07:14.268Z,995.5
2018-05-14T03:08:15.036Z,995.5
2018-05-14T03:09:15.806Z,995.5
2018-05-14T03:10:16.609Z,995.5
2018-05-14T03:11:17.357Z,995.5
2018-05-14T03:12:18.198Z,995.5
2018-05-14T03:13:18.935Z,995.5
2018-05-14T03:14:19.741Z,995.5
2018-05-14T03:15:20.500Z,995.5
2018-05-14T03:16:21.271Z,995.5
2018-05-14T03:17:22.061Z,995.6
2018-05-14T03:18:22.830Z,995.6
2018-05-14T03:19:23.584Z,995.6
2018-05-14T03:20:24.361Z,995.6
2018-05-14T03:21:25.124Z,995.6
2018-05-14T03:22:25.921Z,995.5
2018-05-14T03:23:26.826Z,995.6
2018-05-14T03:24:27.572Z,995.6
2018-05-14T03:25:28.324Z,995.6
2018-05-14T03:26:29.270Z,995.5
2018-05-14T03:27:29.996Z,995.6
2018-05-14T03:28:31.074Z,995.5
2018-05-14T03:29:31.804Z,995.6
2018-05-14T03:30:32.530Z,995.6
2018-05-14T03:31:33.264Z,995.6
2018-05-14T03:32:33.981Z,995.6
2018-05-14T03:33:34.705Z,995.6
2018-05-14T03:34:35.481Z,995.6
2018-05-14T03:35:36.204Z,995.6
2018-05-14T03:36:36.938Z,995.6
2018-05-14T03:37:37.658Z,995.6
2018-05-14T03:38:38.384Z,995.6
2018-05-14T03:39:39.215Z,995.5
2018-05-14T03:40:39.938Z,995.6
2018-05-14T03:41:40.673Z,995.6
2018-05-14T03:42:41.395Z,995.5
2018-05-14T03:43:42.122Z,995.5
2018-05-14T03:44:42.946Z,995.6
2018-05-14T03:45:43.698Z,995.6
2018-05-14T03:46:44.429Z,995.6
2018-05-14T03:47:45.167Z,995.6
2018-05-14T03:48:45.895Z,995.6
2018-05-14T03:49:46.720Z,995.6
2018-05-14T03:50:47.389Z,995.6
2018-05-14T03:51:48.129Z,995.6
2018-05-14T03:52:48.857Z,995.6
2018-05-14T03:53:49.583Z,995.7
2018-05-14T03:54:50.300Z,995.6
2018-05-14T03:55:51.034Z,995.7
2018-05-14T03:56:51.906Z,995.7
2018-05-14T03:57:52.634Z,995.7
2018-05-14T03:58:53.356Z,995.7
2018-05-14T03:59:54.331Z,995.7
2018-05-14T04:00:55.067Z,995.7
2018-05-14T04:01:55.790Z,995.7
2018-05-14T04:02:56.521Z,995.7
2018-05-14T04:03:57.243Z,995.7
2018-05-14T04:04:57.964Z,995.7
2018-05-14T04:05:58.691Z,995.7
2018-05-14T04:06:59.468Z,995.7
2018-05-14T04:08:00.213Z,995.7
2018-05-14T04:09:00.952Z,995.7
2018-05-14T04:10:01.676Z,995.8
2018-05-14T04:11:02.397Z,995.8
2018-05-14T04:12:03.124Z,995.8
2018-05-14T04:13:03.901Z,995.8
2018-05-14T04:14:04.890Z,995.8
2018-05-14T04:15:05.625Z,995.8
2018-05-14T04:16:06.349Z,995.8
2018-05-14T04:17:07.082Z,995.8
2018-05-14T04:18:07.859Z,995.8
2018-05-14T04:19:08.595Z,995.8
2018-05-14T04:20:09.580Z,995.8
2018-05-14T04:21:10.308Z,995.8
2018-05-14T04:22:11.301Z,995.7
2018-05-14T04:23:12.018Z,995.7
2018-05-14T04:24:12.794Z,995.7
2018-05-14T04:25:13.515Z,995.8
2018-05-14T04:26:14.235Z,995.8
2018-05-14T04:27:14.981Z,995.8
2018-05-14T04:28:15.714Z,995.8
2018-05-14T04:29:16.438Z,995.8
2018-05-14T04:30:17.185Z,995.8
2018-05-14T04:31:17.897Z,995.8
2018-05-14T04:32:18.629Z,995.8
2018-05-14T04:33:19.351Z,995.9
2018-05-14T04:34:20.483Z,995.9
2018-05-14T04:35:21.214Z,995.9
2018-05-14T04:36:21.947Z,995.9
2018-05-14T04:37:22.677Z,995.8
2018-05-14T04:38:23.396Z,995.8
2018-05-14T04:39:24.126Z,995.9
2018-05-14T04:40:24.852Z,995.9
2018-05-14T04:41:25.941Z,995.9
2018-05-14T04:42:26.924Z,995.9
2018-05-14T04:43:27.668Z,995.9
2018-05-14T04:44:28.399Z,995.9
2018-05-14T04:45:29.127Z,995.9
2018-05-14T04:46:30.208Z,995.9
2018-05-14T04:47:30.927Z,995.9
2018-05-14T04:48:31.662Z,995.9
2018-05-14T04:49:32.377Z,995.9
2018-05-14T04:50:33.122Z,995.9
2018-05-14T04:51:34.200Z,995.9
2018-05-14T04:52:34.922Z,995.9
2018-05-14T04:53:35.656Z,995.9
2018-05-14T04:54:36.371Z,995.9
2018-05-14T04:55:37.100Z,995.9
2018-05-14T04:56:37.827Z,996.0
2018-05-14T04:57:38.561Z,996.0
2018-05-14T04:58:39.553Z,996.0
2018-05-14T04:59:40.288Z,996.0
2018-05-14T05:00:41.018Z,996.1
2018-05-14T05:01:41.754Z,996.1
2018-05-14T05:02:42.484Z,996.1
2018-05-14T05:03:43.263Z,996.1
2018-05-14T05:04:44.004Z,996.1
2018-05-14T05:05:44.720Z,996.1
2018-05-14T05:06:45.447Z,996.1
2018-05-14T05:07:46.180Z,996.1
2018-05-14T05:08:46.904Z,996.1
2018-05-14T05:09:47.632Z,996.1
2018-05-14T05:10:48.359Z,996.1
2018-05-14T05:11:49.338Z,996.1
2018-05-14T05:12:50.324Z,996.2
2018-05-14T05:13:51.059Z,996.2
2018-05-14T05:14:51.787Z,996.1
2018-05-14T05:15:52.516Z,996.1
2018-05-14T05:16:53.254Z,996.1
2018-05-14T05:17:53.989Z,996.2
2018-05-14T05:18:54.716Z,996.1
2018-05-14T05:19:55.450Z,996.2
2018-05-14T05:20:58.476Z,996.2
2018-05-14T05:21:59.417Z,996.2
2018-05-14T05:23:00.133Z,996.2
2018-05-14T05:24:00.872Z,996.2
2018-05-14T05:25:01.611Z,996.2
2018-05-14T05:26:02.346Z,996.2
2018-05-14T05:27:03.093Z,996.2
2018-05-14T05:28:03.823Z,996.2
2018-05-14T05:29:04.810Z,996.3
2018-05-14T05:30:05.562Z,996.3
2018-05-14T05:31:06.281Z,996.3
2018-05-14T05:32:07.012Z,996.3
2018-05-14T05:33:08.056Z,996.3
2018-05-14T05:34:08.793Z,996.3
2018-05-14T05:35:09.804Z,996.3
2018-05-14T05:36:10.520Z,996.3
2018-05-14T05:37:11.267Z,996.3
2018-05-14T05:38:12.677Z,996.3
2018-05-14T05:39:13.789Z,996.4
2018-05-14T05:40:14.536Z,996.3
2018-05-14T05:41:15.256Z,996.3
2018-05-14T05:42:15.993Z,996.3
2018-05-14T05:43:17.115Z,996.3
2018-05-14T05:44:17.851Z,996.3
2018-05-14T05:45:18.914Z,996.3
2018-05-14T05:46:19.575Z,996.3
2018-05-14T05:47:21.351Z,996.3
2018-05-14T05:48:22.321Z,996.3
2018-05-14T05:49:23.306Z,996.3
2018-05-14T05:50:24.041Z,996.3
2018-05-14T05:51:24.769Z,996.4
2018-05-14T05:52:25.505Z,996.3
2018-05-14T05:53:26.222Z,996.4
2018-05-14T05:54:26.948Z,996.3
2018-05-14T05:55:27.928Z,996.3
2018-05-14T05:56:28.771Z,996.3
2018-05-14T05:57:29.496Z,996.4
2018-05-14T05:58:30.227Z,996.3
2018-05-14T05:59:30.962Z,996.4
2018-05-14T06:00:31.686Z,996.3
2018-05-14T06:01:32.418Z,996.3
2018-05-14T06:02:33.144Z,996.4
2018-05-14T06:03:33.870Z,996.4
2018-05-14T06:04:34.851Z,996.3
2018-05-14T06:05:35.595Z,996.3
2018-05-14T06:06:36.321Z,996.3
2018-05-14T06:07:37.059Z,996.4
2018-05-14T06:08:37.780Z,996.3
2018-05-14T06:09:38.522Z,996.3
2018-05-14T06:10:39.254Z,996.3
2018-05-14T06:11:39.974Z,996.3
2018-05-14T06:12:40.702Z,996.3
2018-05-14T06:13:41.435Z,996.3
2018-05-14T06:14:42.169Z,996.3
2018-05-14T06:15:42.894Z,996.3
2018-05-14T06:16:43.639Z,996.4
2018-05-14T06:17:44.357Z,996.4
2018-05-14T06:18:45.103Z,996.4
2018-05-14T06:19:45.844Z,996.4
2018-05-14T06:20:46.572Z,996.4
2018-05-14T06:21:47.304Z,996.4
2018-05-14T06:22:48.039Z,996.4
2018-05-14T06:23:49.016Z,996.4
2018-05-14T06:24:49.745Z,996.4
2018-05-14T06:25:50.473Z,996.4
2018-05-14T06:26:51.207Z,996.4
2018-05-14T06:27:51.947Z,996.4
2018-05-14T06:28:52.686Z,996.5
2018-05-14T06:29:53.403Z,996.4
2018-05-14T06:30:54.388Z,996.5
2018-05-14T06:31:55.360Z,996.5
2018-05-14T06:32:56.099Z,996.5
2018-05-14T06:33:56.823Z,996.5
2018-05-14T06:34:57.549Z,996.5
2018-05-14T06:35:58.321Z,996.6
2018-05-14T06:36:59.297Z,996.6
2018-05-14T06:38:00.278Z,996.6
2018-05-14T06:39:01.009Z,996.5
2018-05-14T06:40:01.728Z,996.5
2018-05-14T06:41:02.455Z,996.6
2018-05-14T06:42:03.286Z,996.6
2018-05-14T06:43:04.010Z,996.6
2018-05-14T06:44:04.739Z,996.7
2018-05-14T06:45:05.488Z,996.6
2018-05-14T06:46:06.214Z,996.6
2018-05-14T06:47:06.937Z,996.6
2018-05-14T06:48:07.673Z,996.7
2018-05-14T06:49:08.460Z,996.7
2018-05-14T06:50:09.169Z,996.7
2018-05-14T06:51:09.907Z,996.7
2018-05-14T06:52:10.647Z,996.7
2018-05-14T06:53:11.377Z,996.7
2018-05-14T06:54:12.112Z,996.7
2018-05-14T06:55:12.873Z,996.7
2018-05-14T06:56:13.577Z,996.7
2018-05-14T06:57:14.313Z,996.8
2018-05-14T06:58:15.057Z,996.8
2018-05-14T06:59:15.791Z,996.8
2018-05-14T07:00:16.517Z,996.8
2018-05-14T07:01:17.258Z,996.7
2018-05-14T07:02:17.988Z,996.8
2018-05-14T07:03:18.844Z,996.8
2018-05-14T07:04:19.568Z,996.8
2018-05-14T07:05:20.285Z,996.8
2018-05-14T07:06:21.047Z,996.8
2018-05-14T07:07:21.920Z,996.8
2018-05-14T07:08:22.674Z,996.9
2018-05-14T07:09:23.408Z,996.9
2018-05-14T07:10:24.230Z,996.9
2018-05-14T07:11:25.203Z,996.9
2018-05-14T07:12:25.866Z,996.9
2018-05-14T07:13:26.747Z,996.9
2018-05-14T07:14:27.473Z,996.8
2018-05-14T07:15:28.206Z,996.9
2018-05-14T07:16:28.934Z,996.8
2018-05-14T07:17:29.676Z,996.8
2018-05-14T07:18:30.403Z,996.9
2018-05-14T07:19:31.128Z,996.8
2018-05-14T07:20:32.113Z,996.9
2018-05-14T07:21:32.845Z,996.8
2018-05-14T07:22:33.589Z,996.9
2018-05-14T07:23:34.322Z,996.8
2018-05-14T07:24:35.074Z,996.8
2018-05-14T07:25:35.796Z,996.9
2018-05-14T07:26:36.521Z,996.9
2018-05-14T07:27:37.252Z,996.8
2018-05-14T07:28:38.187Z,996.9
2018-05-14T07:29:38.912Z,996.9
2018-05-14T07:30:39.658Z,996.9
2018-05-14T07:31:40.385Z,997.0
2018-05-14T07:32:41.123Z,996.9
2018-05-14T07:33:41.852Z,997.0
2018-05-14T07:34:42.581Z,997.0
2018-05-14T07:35:43.330Z,997.0
2018-05-14T07:36:44.060Z,996.9
2018-05-14T07:37:44.787Z,997.0
2018-05-14T07:38:45.540Z,996.9
2018-05-14T07:39:46.265Z,997.0
2018-05-14T07:40:47.300Z,997.0
2018-05-14T07:41:48.034Z,997.0
2018-05-14T07:42:48.754Z,997.0
2018-05-14T07:43:49.490Z,997.0
2018-05-14T07:44:50.223Z,997.0
2018-05-14T07:45:51.053Z,997.0
2018-05-14T07:46:51.791Z,997.1
2018-05-14T07:47:52.531Z,997.1
2018-05-14T07:48:53.289Z,997.1
2018-05-14T07:49:54.029Z,997.0
2018-05-14T07:50:55.127Z,997.0
2018-05-14T07:51:55.845Z,997.0
2018-05-14T07:52:56.582Z,997.0
2018-05-14T07:53:57.355Z,997.0
2018-05-14T07:54:58.102Z,997.0
2018-05-14T07:55:58.884Z,997.0
2018-05-14T07:56:59.954Z,997.0
2018-05-14T07:58:00.597Z,997.0
2018-05-14T07:59:01.331Z,997.1
2018-05-14T08:00:02.068Z,997.1
2018-05-14T08:01:02.801Z,997.1
2018-05-14T08:02:03.527Z,997.1
2018-05-14T08:03:04.258Z,997.1
2018-05-14T08:04:04.989Z,997.1
2018-05-14T08:05:05.727Z,997.2
2018-05-14T08:06:06.454Z,997.1
2018-05-14T08:07:07.175Z,997.2
2018-05-14T08:08:07.912Z,997.1
2018-05-14T08:09:08.903Z,997.1
2018-05-14T08:10:09.938Z,997.2
2018-05-14T08:11:10.952Z,997.2
2018-05-14T08:12:11.684Z,997.1
2018-05-14T08:13:12.415Z,997.2
2018-05-14T08:14:13.393Z,997.1
2018-05-14T08:15:14.133Z,997.1
2018-05-14T08:16:14.857Z,997.1
2018-05-14T08:17:15.608Z,997.1
2018-05-14T08:18:16.343Z,997.2
2018-05-14T08:19:17.084Z,997.2
2018-05-14T08:20:17.820Z,997.1
2018-05-14T08:21:18.660Z,997.1
2018-05-14T08:22:19.639Z,997.1
2018-05-14T08:23:20.360Z,997.2
2018-05-14T08:24:21.363Z,997.2
2018-05-14T08:25:22.081Z,997.2
2018-05-14T08:26:22.866Z,997.2
2018-05-14T08:27:23.607Z,997.2
2018-05-14T08:28:24.341Z,997.2
2018-05-14T08:29:25.067Z,997.2
2018-05-14T08:30:25.803Z,997.2
2018-05-14T08:31:26.972Z,997.2
2018-05-14T08:32:27.618Z,997.2
2018-05-14T08:33:28.345Z,997.2
2018-05-14T08:34:29.088Z,997.2
2018-05-14T08:35:29.819Z,997.1
2018-05-14T08:36:30.825Z,997.2
2018-05-14T08:37:31.286Z,997.2
2018-05-14T08:38:32.020Z,997.1
2018-05-14T08:39:32.755Z,997.2
2018-05-14T08:40:33.487Z,997.1
2018-05-14T08:41:34.473Z,997.2
2018-05-14T08:42:35.203Z,997.2
2018-05-14T08:43:35.929Z,997.2
2018-05-14T08:44:36.673Z,997.2
2018-05-14T08:45:37.442Z,997.2
2018-05-14T08:46:38.142Z,997.2
2018-05-14T08:47:38.877Z,997.2
2018-05-14T08:48:39.700Z,997.1
2018-05-14T08:49:40.433Z,997.1
2018-05-14T08:50:41.475Z,997.2
2018-05-14T08:51:42.702Z,997.1
2018-05-14T08:52:43.435Z,997.1
2018-05-14T08:53:44.160Z,997.2
2018-05-14T08:54:44.922Z,997.2
2018-05-14T08:55:45.622Z,997.2
2018-05-14T08:56:46.622Z,997.2
2018-05-14T08:57:47.345Z,997.2
2018-05-14T08:58:48.083Z,997.2
2018-05-14T08:59:48.813Z,997.2
2018-05-14T09:00:49.558Z,997.2
2018-05-14T09:01:50.641Z,997.2
2018-05-14T09:02:51.380Z,997.2
2018-05-14T09:03:52.111Z,997.2
2018-05-14T09:04:52.838Z,997.2
2018-05-14T09:05:53.571Z,997.2
2018-05-14T09:06:54.311Z,997.1
2018-05-14T09:07:55.391Z,997.1
2018-05-14T09:08:56.132Z,997.1
2018-05-14T09:09:56.871Z,997.2
2018-05-14T09:10:57.604Z,997.2
2018-05-14T09:11:58.336Z,997.2
2018-05-14T09:12:59.081Z,997.2
2018-05-14T09:13:59.816Z,997.2
2018-05-14T09:15:00.553Z,997.2
2018-05-14T09:16:01.281Z,997.2
2018-05-14T09:17:02.019Z,997.2
2018-05-14T09:18:02.756Z,997.2
2018-05-14T09:19:03.483Z,997.3
2018-05-14T09:20:04.468Z,997.2
2018-05-14T09:21:05.243Z,997.3
2018-05-14T09:22:05.981Z,997.2
2018-05-14T09:23:06.722Z,997.3
2018-05-14T09:24:07.449Z,997.3
2018-05-14T09:25:08.199Z,997.3
2018-05-14T09:26:09.331Z,997.3
2018-05-14T09:27:10.054Z,997.3
2018-05-14T09:28:10.800Z,997.3
2018-05-14T09:29:11.537Z,997.3
2018-05-14T09:30:12.256Z,997.3
2018-05-14T09:31:13.052Z,997.3
2018-05-14T09:32:13.820Z,997.3
2018-05-14T09:33:14.561Z,997.3
2018-05-14T09:34:15.297Z,997.3
2018-05-14T09:35:16.030Z,997.3
2018-05-14T09:36:16.749Z,997.3
2018-05-14T09:37:17.829Z,997.3
2018-05-14T09:38:18.528Z,997.2
2018-05-14T09:39:19.256Z,997.2
2018-05-14T09:40:19.989Z,997.2
2018-05-14T09:41:20.724Z,997.2
2018-05-14T09:42:21.711Z,997.2
2018-05-14T09:43:22.444Z,997.2
2018-05-14T09:44:23.178Z,997.3
2018-05-14T09:45:24.009Z,997.3
2018-05-14T09:46:24.742Z,997.2
2018-05-14T09:47:25.480Z,997.3
2018-05-14T09:48:26.212Z,997.3
2018-05-14T09:49:26.943Z,997.3
2018-05-14T09:50:27.745Z,997.3
2018-05-14T09:51:28.424Z,997.3
2018-05-14T09:52:29.407Z,997.3
2018-05-14T09:53:30.155Z,997.4
2018-05-14T09:54:30.874Z,997.3
2018-05-14T09:55:31.662Z,997.3
2018-05-14T09:56:32.403Z,997.3
2018-05-14T09:57:33.140Z,997.3
2018-05-14T09:58:33.875Z,997.3
2018-05-14T09:59:34.654Z,997.3
2018-05-14T10:00:36.004Z,997.3
2018-05-14T10:01:37.055Z,997.3
2018-05-14T10:02:37.781Z,997.3
2018-05-14T10:03:38.563Z,997.3
2018-05-14T10:04:39.262Z,997.3
2018-05-14T10:05:39.994Z,997.3
2018-05-14T10:06:40.777Z,997.3
2018-05-14T10:07:41.516Z,997.3
2018-05-14T10:08:42.248Z,997.3
2018-05-14T10:09:42.976Z,997.3
2018-05-14T10:10:43.719Z,997.3
2018-05-14T10:11:44.447Z,997.3
2018-05-14T10:12:45.422Z,997.3
2018-05-14T10:13:46.160Z,997.3
2018-05-14T10:14:46.902Z,997.4
2018-05-14T10:15:47.888Z,997.3
2018-05-14T10:16:48.621Z,997.3
2018-05-14T10:17:49.354Z,997.3
2018-05-14T10:18:50.525Z,997.3
2018-05-14T10:19:51.177Z,997.2
2018-05-14T10:20:51.903Z,997.3
2018-05-14T10:21:52.643Z,997.3
2018-05-14T10:22:53.377Z,997.2
2018-05-14T10:23:54.166Z,997.2
2018-05-14T10:24:54.902Z,997.2
2018-05-14T10:25:55.893Z,997.3
2018-05-14T10:26:56.632Z,997.2
2018-05-14T10:27:57.357Z,997.2
2018-05-14T10:28:58.097Z,997.2
2018-05-14T10:29:59.188Z,997.2
2018-05-14T10:30:59.921Z,997.2
2018-05-14T10:32:00.772Z,997.1
2018-05-14T10:33:01.402Z,997.3
2018-05-14T10:34:02.138Z,997.3
2018-05-14T10:35:03.020Z,997.2
2018-05-14T10:36:03.745Z,997.2
2018-05-14T10:37:04.478Z,997.2
2018-05-14T10:38:05.221Z,997.2
2018-05-14T10:39:05.951Z,997.2
2018-05-14T10:40:06.702Z,997.2
2018-05-14T10:41:07.434Z,997.1
2018-05-14T10:42:08.178Z,997.2
2018-05-14T10:43:08.913Z,997.2
2018-05-14T10:44:09.811Z,997.2
2018-05-14T10:45:10.557Z,997.2
2018-05-14T10:46:11.551Z,997.2
2018-05-14T10:47:12.285Z,997.2
2018-05-14T10:48:13.032Z,997.2
2018-05-14T10:49:13.773Z,997.2
2018-05-14T10:50:14.604Z,997.2
2018-05-14T10:51:15.596Z,997.2
2018-05-14T10:52:17.507Z,997.2
2018-05-14T10:53:19.387Z,997.2
2018-05-14T10:54:20.422Z,997.3
2018-05-14T10:55:21.435Z,997.2
2018-05-14T10:56:22.179Z,997.2
2018-05-14T10:57:23.091Z,997.2
2018-05-14T10:58:23.826Z,997.3
2018-05-14T10:59:24.815Z,997.2
2018-05-14T11:00:25.553Z,997.2
2018-05-14T11:01:26.295Z,997.3
2018-05-14T11:02:27.446Z,997.2
2018-05-14T11:03:28.189Z,997.2
2018-05-14T11:04:28.948Z,997.1
2018-05-14T11:05:29.689Z,997.1
2018-05-14T11:06:30.419Z,997.2
2018-05-14T11:07:31.156Z,997.2
2018-05-14T11:08:31.899Z,997.2
2018-05-14T11:09:32.890Z,997.2
2018-05-14T11:10:33.689Z,997.2
2018-05-14T11:11:34.367Z,997.2
2018-05-14T11:12:35.104Z,997.3
2018-05-14T11:13:35.839Z,997.2
2018-05-14T11:14:36.583Z,997.2
2018-05-14T11:15:37.325Z,997.2
2018-05-14T11:16:38.065Z,997.3
2018-05-14T11:17:38.798Z,997.3
2018-05-14T11:18:39.631Z,997.3
2018-05-14T11:19:40.368Z,997.3
2018-05-14T11:20:41.097Z,997.3
2018-05-14T11:21:41.837Z,997.3
2018-05-14T11:22:42.582Z,997.4
2018-05-14T11:23:43.314Z,997.3
2018-05-14T11:24:44.072Z,997.2
2018-05-14T11:25:44.814Z,997.3
2018-05-14T11:26:45.557Z,997.4
2018-05-14T11:27:46.344Z,997.2
2018-05-14T11:28:47.025Z,997.3
2018-05-14T11:29:47.764Z,997.3
2018-05-14T11:30:48.502Z,997.3
2018-05-14T11:31:49.495Z,997.3
2018-05-14T11:32:50.235Z,997.3
2018-05-14T11:33:50.965Z,997.3
2018-05-14T11:34:51.707Z,997.3
2018-05-14T11:35:52.455Z,997.3
2018-05-14T11:36:53.196Z,997.3
2018-05-14T11:37:53.931Z,997.3
2018-05-14T11:38:54.674Z,997.4
2018-05-14T11:39:55.411Z,997.3
2018-05-14T11:40:56.156Z,997.4
2018-05-14T11:41:56.886Z,997.3
2018-05-14T11:42:57.636Z,997.4
2018-05-14T11:43:58.374Z,997.3
2018-05-14T11:44:59.117Z,997.3
2018-05-14T11:45:59.861Z,997.3
2018-05-14T11:47:00.603Z,997.3
2018-05-14T11:48:01.335Z,997.3
2018-05-14T11:49:02.079Z,997.3
2018-05-14T11:50:02.820Z,997.3
2018-05-14T11:51:03.562Z,997.4
2018-05-14T11:52:04.299Z,997.3
2018-05-14T11:53:05.030Z,997.3
2018-05-14T11:54:05.762Z,997.3
2018-05-14T11:55:06.554Z,997.3
2018-05-14T11:56:07.292Z,997.3
2018-05-14T11:57:08.045Z,997.3
2018-05-14T11:58:08.770Z,997.4
2018-05-14T11:59:09.505Z,997.3
2018-05-14T12:00:10.247Z,997.3
2018-05-14T12:01:10.999Z,997.3
2018-05-14T12:02:11.725Z,997.2
2018-05-14T12:03:12.510Z,997.3
2018-05-14T12:04:13.211Z,997.3
2018-05-14T12:05:13.949Z,997.4
2018-05-14T12:06:14.691Z,997.3
2018-05-14T12:07:15.782Z,997.2
2018-05-14T12:08:16.519Z,997.2
2018-05-14T12:09:17.248Z,997.2
2018-05-14T12:10:17.986Z,997.3
2018-05-14T12:11:18.735Z,997.3
2018-05-14T12:12:19.833Z,997.2
2018-05-14T12:13:20.574Z,997.3
2018-05-14T12:14:21.328Z,997.2
2018-05-14T12:15:22.075Z,997.2
2018-05-14T12:16:22.824Z,997.1
2018-05-14T12:17:23.562Z,997.3
2018-05-14T12:18:24.306Z,997.3
2018-05-14T12:19:25.070Z,997.1
2018-05-14T12:20:25.796Z,997.2
2018-05-14T12:21:26.529Z,997.2
2018-05-14T12:22:27.256Z,997.2
2018-05-14T12:23:27.987Z,997.2
2018-05-14T12:24:28.725Z,997.3
2018-05-14T12:25:29.714Z,997.2
2018-05-14T12:26:30.438Z,997.2
2018-05-14T12:27:31.182Z,997.3
2018-05-14T12:28:31.920Z,997.3
2018-05-14T12:29:33.262Z,997.2
2018-05-14T12:30:33.995Z,997.3
2018-05-14T12:31:34.737Z,997.2
2018-05-14T12:32:35.470Z,997.2
2018-05-14T12:33:36.200Z,997.3
2018-05-14T12:34:36.938Z,997.3
2018-05-14T12:35:37.676Z,997.3
2018-05-14T12:36:38.415Z,997.3
2018-05-14T12:37:39.417Z,997.3
2018-05-14T12:38:40.140Z,997.3
2018-05-14T12:39:40.880Z,997.2
2018-05-14T12:40:41.618Z,997.2
2018-05-14T12:41:42.466Z,997.2
2018-05-14T12:42:43.200Z,997.2
2018-05-14T12:43:43.933Z,997.2
2018-05-14T12:44:44.685Z,997.2
2018-05-14T12:45:45.439Z,997.3
2018-05-14T12:46:46.279Z,997.2
2018-05-14T12:47:47.015Z,997.2
2018-05-14T12:48:48.003Z,997.2
2018-05-14T12:49:48.754Z,997.1
2018-05-14T12:50:49.488Z,997.2
2018-05-14T12:51:50.339Z,997.2
2018-05-14T12:52:51.009Z,997.2
2018-05-14T12:53:51.751Z,997.3
2018-05-14T12:54:52.481Z,997.2
2018-05-14T12:55:53.209Z,997.2
2018-05-14T12:56:54.299Z,997.2
2018-05-14T12:57:55.040Z,997.2
2018-05-14T12:58:55.780Z,997.2
2018-05-14T12:59:56.545Z,997.3
2018-05-14T13:00:57.278Z,997.1
2018-05-14T13:01:58.023Z,997.3
2018-05-14T13:02:58.762Z,997.3